Time;durP1;ratioP1;P1;durP2;ratioP2;P2;SDS_P1;SDS_P2;PMS_P1;PMS_P2;Temp;Humidity;BMP_temperature;BMP_pressure;BME280_temperature;BME280_humidity;BME280_pressure;Samples;Min_cycle;Max_cycle;Signal;HPM_P1;HPM_P2
2021/11/03 00:00:26;;;;;;;39.88;22.30;;;;;;;;;;5099369;28;20056;-72
2021/11/03 00:02:52;;;;;;;34.92;19.48;;;;;;;;;;5115148;28;20032;-72
2021/11/03 00:05:18;;;;;;;35.35;19.70;;;;;;;;;;5122133;28;20103;-71
2021/11/03 00:07:45;;;;;;;39.20;20.70;;;;;;;;;;5111100;28;20064;-72
2021/11/03 00:10:13;;;;;;;35.05;19.00;;;;;;;;;;5113982;28;20048;-72
2021/11/03 00:12:39;;;;;;;;;;;;;;;;;;5094333;28;20044;-72
2021/11/03 00:15:05;;;;;;;34.35;19.23;;;;;;;;;;5116379;28;19927;-72
2021/11/03 00:17:31;;;;;;;34.67;18.53;;;;;;;;;;5119961;28;20040;-71
2021/11/03 00:19:57;;;;;;;30.33;17.27;;;;;;;;;;5102249;28;20070;-71
2021/11/03 00:22:24;;;;;;;32.75;18.15;;;;;;;;;;5123180;28;20044;-72
2021/11/03 00:24:50;;;;;;;30.25;15.73;;;;;;;;;;5112675;28;20205;-71
2021/11/03 00:27:16;;;;;;;31.77;16.55;;;;;;;;;;5120719;28;20205;-72
2021/11/03 00:29:42;;;;;;;27.67;16.02;;;;;;;;;;5120246;28;20047;-71
2021/11/03 00:32:10;;;;;;;32.53;17.52;;;;;;;;;;5112095;28;20077;-71
2021/11/03 00:34:36;;;;;;;32.85;16.70;;;;;;;;;;5115366;28;20044;-71
2021/11/03 00:37:04;;;;;;;36.75;18.52;;;;;;;;;;5099686;28;20050;-71
2021/11/03 00:39:30;;;;;;;36.28;18.80;;;;;;;;;;5094840;28;20397;-71
2021/11/03 00:41:57;;;;;;;37.28;20.20;;;;;;;;;;5098510;28;20077;-71
2021/11/03 00:44:23;;;;;;;39.58;20.98;;;;;;;;;;5116705;28;20048;-71
2021/11/03 00:46:50;;;;;;;40.03;21.15;;;;;;;;;;5107598;28;20039;-71
2021/11/03 00:49:16;;;;;;;41.15;22.92;;;;;;;;;;5118124;28;20036;-71
2021/11/03 00:51:42;;;;;;;40.50;22.02;;;;;;;;;;5090698;28;20044;-71
2021/11/03 00:54:08;;;;;;;44.47;22.20;;;;;;;;;;5094999;28;20040;-70
2021/11/03 00:56:35;;;;;;;47.65;23.80;;;;;;;;;;5103778;28;20047;-71
2021/11/03 00:59:02;;;;;;;44.53;23.35;;;;;;;;;;5118169;28;20048;-71
2021/11/03 01:01:28;;;;;;;40.77;22.00;;;;;;;;;;5126320;28;20059;-70
2021/11/03 01:03:54;;;;;;;37.08;20.63;;;;;;;;;;5127162;28;20301;-71
2021/11/03 01:06:20;;;;;;;40.72;21.90;;;;;;;;;;5116823;28;20076;-71
2021/11/03 01:08:46;;;;;;;31.98;19.08;;;;;;;;;;5126650;28;20050;-71
2021/11/03 01:11:12;;;;;;;38.03;19.88;;;;;;;;;;5120948;28;20035;-71
2021/11/03 01:13:38;;;;;;;34.70;18.38;;;;;;;;;;5112831;28;20127;-70
2021/11/03 01:16:04;;;;;;;32.75;18.48;;;;;;;;;;5121960;28;20487;-70
2021/11/03 01:18:32;;;;;;;33.42;18.27;;;;;;;;;;5120882;28;20044;-70
2021/11/03 01:20:58;;;;;;;32.67;17.88;;;;;;;;;;5124467;28;20110;-70
2021/11/03 01:23:25;;;;;;;30.42;17.75;;;;;;;;;;5104675;28;20032;-70
2021/11/03 01:25:51;;;;;;;32.72;18.70;;;;;;;;;;5125295;28;20122;-71
2021/11/03 01:28:18;;;;;;;32.58;18.08;;;;;;;;;;5101294;28;20075;-70
2021/11/03 01:30:45;;;;;;;33.70;17.58;;;;;;;;;;5120846;28;20051;-70
2021/11/03 01:33:12;;;;;;;34.75;18.48;;;;;;;;;;5116799;28;20050;-70
2021/11/03 01:35:38;;;;;;;29.60;15.98;;;;;;;;;;5100844;28;20043;-71
2021/11/03 01:38:05;;;;;;;29.27;16.52;;;;;;;;;;5115575;28;20040;-71
2021/11/03 01:40:32;;;;;;;30.45;16.63;;;;;;;;;;5122844;28;20059;-70
2021/11/03 01:42:58;;;;;;;27.92;15.55;;;;;;;;;;5111964;28;20063;-70
2021/11/03 01:45:26;;;;;;;30.40;15.50;;;;;;;;;;5124276;28;20050;-70
2021/11/03 01:47:52;;;;;;;24.63;14.27;;;;;;;;;;5105755;28;20050;-70
2021/11/03 01:50:27;;;;;;;27.05;15.25;;;;;;;;;;5109777;28;20040;-70
2021/11/03 01:53:13;;;;;;;26.85;15.27;;;;;;;;;;5098266;28;20047;-70
2021/11/03 01:55:42;;;;;;;30.40;15.63;;;;;;;;;;5113859;28;20039;-70
2021/11/03 01:58:15;;;;;;;26.92;14.50;;;;;;;;;;5105880;28;20042;-70
2021/11/03 02:00:42;;;;;;;22.60;13.02;;;;;;;;;;5098370;28;20105;-69
2021/11/03 02:03:11;;;;;;;21.00;12.15;;;;;;;;;;5124596;28;20129;-70
2021/11/03 02:05:37;;;;;;;23.35;13.32;;;;;;;;;;5094947;28;20050;-70
2021/11/03 02:08:04;;;;;;;20.88;13.25;;;;;;;;;;5117187;28;20040;-70
2021/11/03 02:10:31;;;;;;;29.17;13.80;;;;;;;;;;5123175;28;20031;-69
2021/11/03 02:12:57;;;;;;;24.17;12.83;;;;;;;;;;5120367;28;20043;-70
2021/11/03 02:15:24;;;;;;;19.83;12.07;;;;;;;;;;5123905;28;20040;-72
2021/11/03 02:17:50;;;;;;;18.90;12.10;;;;;;;;;;5109821;28;20040;-70
2021/11/03 02:20:18;;;;;;;19.00;11.35;;;;;;;;;;5092285;28;20112;-70
2021/11/03 02:22:44;;;;;;;;;;;;;;;;;;5112922;28;20114;-70
2021/11/03 02:25:12;;;;;;;17.08;11.05;;;;;;;;;;5120519;28;19927;-70
2021/11/03 02:27:38;;;;;;;;;;;;;;;;;;5117055;28;20047;-69
2021/11/03 02:30:05;;;;;;;16.35;10.40;;;;;;;;;;5123070;28;19919;-70
2021/11/03 02:32:32;;;;;;;19.90;10.75;;;;;;;;;;5113777;28;20040;-69
2021/11/03 02:34:58;;;;;;;16.92;10.20;;;;;;;;;;5119560;28;20039;-70
2021/11/03 02:37:30;;;;;;;15.32;9.13;;;;;;;;;;5115715;28;20035;-70
2021/11/03 02:39:56;;;;;;;15.48;10.07;;;;;;;;;;5098037;28;20052;-71
2021/11/03 02:42:23;;;;;;;13.90;9.32;;;;;;;;;;5111533;28;20107;-69
2021/11/03 02:44:49;;;;;;;17.80;9.87;;;;;;;;;;5106926;28;20046;-69
2021/11/03 02:47:15;;;;;;;16.83;9.60;;;;;;;;;;5115854;28;20079;-69
2021/11/03 02:49:41;;;;;;;13.73;9.07;;;;;;;;;;5103472;28;20116;-69
2021/11/03 02:52:26;;;;;;;15.95;9.43;;;;;;;;;;5118472;28;20047;-69
2021/11/03 02:54:53;;;;;;;13.73;8.93;;;;;;;;;;5103328;28;20047;-71
2021/11/03 02:57:19;;;;;;;17.65;10.43;;;;;;;;;;5117227;28;20046;-69
2021/11/03 02:59:46;;;;;;;16.48;9.43;;;;;;;;;;5117694;28;20035;-69
2021/11/03 03:02:12;;;;;;;13.57;8.50;;;;;;;;;;5105342;28;20122;-69
2021/11/03 03:04:43;;;;;;;12.98;8.45;;;;;;;;;;5118182;28;20066;-69
2021/11/03 03:07:10;;;;;;;15.77;8.80;;;;;;;;;;5125630;28;20043;-69
2021/11/03 03:09:36;;;;;;;13.73;8.73;;;;;;;;;;5099873;28;20518;-70
2021/11/03 03:12:03;;;;;;;13.23;8.60;;;;;;;;;;5111737;28;20562;-69
2021/11/03 03:14:31;;;;;;;15.98;9.18;;;;;;;;;;5117236;28;20047;-69
2021/11/03 03:16:57;;;;;;;15.40;8.88;;;;;;;;;;5116433;28;20050;-70
2021/11/03 03:19:23;;;;;;;12.55;7.93;;;;;;;;;;5114877;28;20032;-70
2021/11/03 03:21:49;;;;;;;12.65;8.10;;;;;;;;;;5118634;28;20040;-69
2021/11/03 03:24:16;;;;;;;14.90;8.95;;;;;;;;;;5118246;28;20055;-69
2021/11/03 03:26:43;;;;;;;13.93;8.32;;;;;;;;;;5106409;28;20073;-69
2021/11/03 03:29:10;;;;;;;14.77;8.55;;;;;;;;;;5117756;28;20031;-70
2021/11/03 03:31:37;;;;;;;14.52;8.77;;;;;;;;;;5094087;28;20055;-69
2021/11/03 03:34:06;;;;;;;12.88;9.20;;;;;;;;;;5115832;28;20054;-69
2021/11/03 03:36:32;;;;;;;15.85;8.77;;;;;;;;;;5122636;28;20498;-69
2021/11/03 03:38:58;;;;;;;15.25;8.82;;;;;;;;;;5120932;28;20602;-69
2021/11/03 03:41:27;;;;;;;12.90;7.93;;;;;;;;;;5110970;28;20152;-68
2021/11/03 03:43:53;;;;;;;14.10;8.65;;;;;;;;;;5115418;28;20150;-69
2021/11/03 03:46:19;;;;;;;11.75;8.48;;;;;;;;;;5113329;28;20035;-69
2021/11/03 03:48:46;;;;;;;10.93;7.75;;;;;;;;;;5116679;28;20038;-69
2021/11/03 03:51:12;;;;;;;11.98;8.00;;;;;;;;;;5118170;28;20040;-69
2021/11/03 03:53:38;;;;;;;10.25;7.63;;;;;;;;;;5115228;28;20067;-69
2021/11/03 03:56:04;;;;;;;12.75;7.97;;;;;;;;;;5094336;28;20056;-69
2021/11/03 03:58:31;;;;;;;14.27;8.38;;;;;;;;;;5101768;28;20052;-69
2021/11/03 04:00:57;;;;;;;13.60;8.13;;;;;;;;;;5112992;28;20058;-69
2021/11/03 04:03:23;;;;;;;11.50;7.68;;;;;;;;;;5120050;28;20047;-68
2021/11/03 04:05:50;;;;;;;11.73;8.20;;;;;;;;;;5107591;28;20036;-68
2021/11/03 04:08:19;;;;;;;10.13;7.68;;;;;;;;;;5120427;28;20043;-69
2021/11/03 04:10:45;;;;;;;12.32;8.43;;;;;;;;;;5111041;28;20082;-69
2021/11/03 04:13:12;;;;;;;11.38;8.00;;;;;;;;;;5121362;28;20036;-68
2021/11/03 04:15:38;;;;;;;12.07;8.02;;;;;;;;;;5103206;28;20058;-69
2021/11/03 04:18:05;;;;;;;10.73;7.30;;;;;;;;;;5096389;28;20032;-68
2021/11/03 04:20:31;;;;;;;12.65;7.75;;;;;;;;;;5117664;28;20047;-68
2021/11/03 04:22:57;;;;;;;10.57;7.05;;;;;;;;;;5102888;28;20047;-68
2021/11/03 04:25:24;;;;;;;11.27;7.78;;;;;;;;;;5114290;28;20027;-69
2021/11/03 04:27:50;;;;;;;12.75;8.38;;;;;;;;;;5105744;28;20040;-68
2021/11/03 04:30:17;;;;;;;10.68;7.40;;;;;;;;;;5113728;28;20043;-68
2021/11/03 04:32:44;;;;;;;11.70;8.32;;;;;;;;;;5118206;28;20058;-68
2021/11/03 04:35:10;;;;;;;11.85;7.90;;;;;;;;;;5108216;28;20051;-68
2021/11/03 04:37:36;;;;;;;11.15;7.88;;;;;;;;;;5121458;28;20099;-68
2021/11/03 04:40:04;;;;;;;13.98;7.78;;;;;;;;;;5105448;28;20066;-68
2021/11/03 04:42:30;;;;;;;11.63;8.00;;;;;;;;;;5114630;28;20051;-68
2021/11/03 04:44:56;;;;;;;11.65;8.43;;;;;;;;;;5104461;28;20039;-68
2021/11/03 04:47:22;;;;;;;12.43;8.60;;;;;;;;;;5105417;28;20048;-68
2021/11/03 04:49:48;;;;;;;15.65;9.38;;;;;;;;;;5120653;28;20049;-68
2021/11/03 04:52:14;;;;;;;15.20;8.60;;;;;;;;;;5123839;28;20048;-69
2021/11/03 04:54:41;;;;;;;16.65;9.40;;;;;;;;;;5116517;28;20040;-68
2021/11/03 04:57:07;;;;;;;14.85;10.02;;;;;;;;;;5119032;28;20047;-68
2021/11/03 04:59:33;;;;;;;16.08;9.77;;;;;;;;;;5123178;28;20046;-69
2021/11/03 05:01:59;;;;;;;16.38;9.88;;;;;;;;;;5124063;28;20032;-68
2021/11/03 05:04:25;;;;;;;18.85;10.40;;;;;;;;;;5097818;28;20076;-68
2021/11/03 05:06:51;;;;;;;16.67;10.80;;;;;;;;;;5124020;28;20096;-70
2021/11/03 05:09:18;;;;;;;18.30;10.95;;;;;;;;;;5098564;28;20124;-69
2021/11/03 05:11:44;;;;;;;16.27;10.75;;;;;;;;;;5122628;28;20507;-68
2021/11/03 05:14:11;;;;;;;17.60;12.25;;;;;;;;;;5111624;28;20485;-69
2021/11/03 05:16:37;;;;;;;20.40;11.50;;;;;;;;;;5112679;28;20036;-69
2021/11/03 05:19:04;;;;;;;21.95;11.75;;;;;;;;;;5122341;28;20063;-68
2021/11/03 05:21:31;;;;;;;21.08;10.93;;;;;;;;;;5096632;28;20040;-69
2021/11/03 05:23:57;;;;;;;18.58;10.90;;;;;;;;;;5121666;28;20043;-69
2021/11/03 05:26:25;;;;;;;18.17;11.52;;;;;;;;;;5115506;28;20047;-69
2021/11/03 05:28:53;;;;;;;18.98;11.95;;;;;;;;;;5113086;28;20035;-69
2021/11/03 05:31:19;;;;;;;22.52;12.43;;;;;;;;;;5115800;28;20044;-69
2021/11/03 05:33:45;;;;;;;21.50;12.90;;;;;;;;;;5116872;28;20043;-69
2021/11/03 05:36:16;;;;;;;21.48;12.35;;;;;;;;;;5111794;28;20086;-69
2021/11/03 05:38:42;;;;;;;23.30;12.70;;;;;;;;;;5096267;28;20450;-68
2021/11/03 05:41:08;;;;;;;21.90;13.45;;;;;;;;;;5098751;28;20055;-68
2021/11/03 05:43:34;;;;;;;23.27;13.93;;;;;;;;;;5114845;28;20043;-69
2021/11/03 05:46:00;;;;;;;25.15;14.65;;;;;;;;;;5114624;28;20705;-68
2021/11/03 05:48:28;;;;;;;26.55;15.07;;;;;;;;;;5121131;28;20460;-68
2021/11/03 05:50:54;;;;;;;24.10;14.45;;;;;;;;;;5096843;28;20047;-68
2021/11/03 05:53:20;;;;;;;20.90;13.45;;;;;;;;;;5105302;28;20055;-68
2021/11/03 05:55:46;;;;;;;21.40;13.15;;;;;;;;;;5117744;28;20044;-68
2021/11/03 05:58:12;;;;;;;22.02;13.65;;;;;;;;;;5117448;28;20043;-68
2021/11/03 06:00:39;;;;;;;21.20;14.23;;;;;;;;;;5121308;28;20097;-68
2021/11/03 06:03:05;;;;;;;26.05;14.23;;;;;;;;;;5109241;28;20043;-68
2021/11/03 06:05:31;;;;;;;23.02;13.82;;;;;;;;;;5103400;28;20048;-68
2021/11/03 06:07:59;;;;;;;21.48;14.30;;;;;;;;;;5094101;28;20046;-68
2021/11/03 06:10:28;;;;;;;23.20;14.55;;;;;;;;;;5121383;28;20772;-68
2021/11/03 06:12:58;;;;;;;20.77;15.35;;;;;;;;;;5097817;28;20051;-68
2021/11/03 06:15:27;;;;;;;21.83;14.52;;;;;;;;;;5121844;28;20096;-68
2021/11/03 06:17:53;;;;;;;23.55;15.45;;;;;;;;;;5101110;28;20040;-68
2021/11/03 06:20:19;;;;;;;24.50;14.50;;;;;;;;;;5117497;28;20126;-68
2021/11/03 06:22:46;;;;;;;25.33;15.43;;;;;;;;;;5099314;28;20145;-68
2021/11/03 06:25:13;;;;;;;24.45;16.00;;;;;;;;;;5104273;28;20044;-68
2021/11/03 06:27:39;;;;;;;30.98;17.85;;;;;;;;;;5091414;28;20055;-68
2021/11/03 06:30:06;;;;;;;29.20;18.27;;;;;;;;;;5119370;28;20142;-69
2021/11/03 06:32:32;;;;;;;28.60;18.20;;;;;;;;;;5125924;28;20050;-68
2021/11/03 06:34:58;;;;;;;27.90;17.95;;;;;;;;;;5120500;28;20163;-68
2021/11/03 06:37:25;;;;;;;34.25;19.48;;;;;;;;;;5114047;28;20108;-68
2021/11/03 06:39:51;;;;;;;31.67;19.85;;;;;;;;;;5116403;28;20088;-68
2021/11/03 06:42:17;;;;;;;32.10;19.83;;;;;;;;;;5108059;28;20044;-68
2021/11/03 06:44:43;;;;;;;29.08;18.77;;;;;;;;;;5119557;28;20075;-69
2021/11/03 06:47:09;;;;;;;32.22;20.90;;;;;;;;;;5115588;28;20040;-69
2021/11/03 06:49:35;;;;;;;35.30;21.92;;;;;;;;;;5120433;28;20104;-69
2021/11/03 06:52:01;;;;;;;33.28;20.90;;;;;;;;;;5118856;28;20032;-68
2021/11/03 06:54:27;;;;;;;36.78;20.52;;;;;;;;;;5122012;28;20130;-68
2021/11/03 06:56:54;;;;;;;39.53;22.10;;;;;;;;;;5092365;28;20069;-68
2021/11/03 06:59:20;;;;;;;31.33;20.60;;;;;;;;;;5111190;28;20533;-69
2021/11/03 07:01:47;;;;;;;38.70;23.13;;;;;;;;;;5122153;28;20040;-68
2021/11/03 07:04:14;;;;;;;37.90;22.88;;;;;;;;;;5119023;28;20043;-68
2021/11/03 07:06:40;;;;;;;33.47;20.33;;;;;;;;;;5101432;28;20044;-68
2021/11/03 07:09:06;;;;;;;33.95;22.17;;;;;;;;;;5121218;28;20039;-68
2021/11/03 07:11:33;;;;;;;40.33;24.73;;;;;;;;;;5097667;28;20039;-68
2021/11/03 07:13:59;;;;;;;37.80;23.02;;;;;;;;;;5091043;28;20043;-68
2021/11/03 07:16:26;;;;;;;38.92;21.98;;;;;;;;;;5109531;28;20059;-68
2021/11/03 07:18:52;;;;;;;36.93;21.43;;;;;;;;;;5089528;28;20040;-69
2021/11/03 07:21:18;;;;;;;36.53;22.55;;;;;;;;;;5115628;28;20856;-68
2021/11/03 07:23:44;;;;;;;35.65;23.45;;;;;;;;;;5123004;28;20096;-68
2021/11/03 07:26:11;;;;;;;38.03;21.77;;;;;;;;;;5114304;28;20031;-68
2021/11/03 07:28:38;;;;;;;43.72;22.40;;;;;;;;;;5103289;28;20051;-68
2021/11/03 07:31:05;;;;;;;37.58;23.48;;;;;;;;;;5113988;28;20040;-69
2021/11/03 07:33:35;;;;;;;33.47;22.48;;;;;;;;;;5099092;28;20055;-68
2021/11/03 07:36:02;;;;;;;37.25;22.45;;;;;;;;;;5094897;28;20088;-68
2021/11/03 07:38:28;;;;;;;35.25;20.83;;;;;;;;;;5116886;28;20047;-68
2021/11/03 07:40:56;;;;;;;33.53;21.33;;;;;;;;;;5092751;28;20051;-68
2021/11/03 07:43:22;;;;;;;;;;;;;;;;;;5095125;28;20036;-68
2021/11/03 07:45:49;;;;;;;37.17;21.55;;;;;;;;;;5100005;28;19924;-68
2021/11/03 07:48:15;;;;;;;37.42;22.05;;;;;;;;;;5096215;28;20063;-68
2021/11/03 07:50:46;;;;;;;41.42;24.27;;;;;;;;;;5097962;28;20044;-68
2021/11/03 07:53:13;;;;;;;41.67;25.13;;;;;;;;;;5091332;28;20044;-68
2021/11/03 07:55:42;;;;;;;42.85;24.23;;;;;;;;;;5099897;28;20078;-69
2021/11/03 07:58:11;;;;;;;43.88;25.95;;;;;;;;;;5082916;28;20531;-68
2021/11/03 08:00:37;;;;;;;43.50;25.08;;;;;;;;;;5068313;28;20044;-68
2021/11/03 08:03:03;;;;;;;46.35;26.45;;;;;;;;;;5088439;28;20041;-68
2021/11/03 08:05:30;;;;;;;41.83;25.23;;;;;;;;;;5099831;28;20578;-68
2021/11/03 08:07:57;;;;;;;42.55;25.30;;;;;;;;;;5088766;28;20045;-69
2021/11/03 08:10:24;;;;;;;43.23;25.20;;;;;;;;;;5095914;28;20033;-69
2021/11/03 08:12:52;;;;;;;45.33;25.25;;;;;;;;;;5100295;28;20333;-68
2021/11/03 08:15:18;;;;;;;46.17;27.25;;;;;;;;;;5097768;28;20051;-68
2021/11/03 08:17:45;;;;;;;47.60;26.90;;;;;;;;;;5073129;28;20053;-69
2021/11/03 08:20:14;;;;;;;52.50;27.85;;;;;;;;;;5083792;28;20106;-68
2021/11/03 08:22:41;;;;;;;49.53;27.83;;;;;;;;;;5083774;28;20040;-68
2021/11/03 08:25:08;;;;;;;53.67;29.40;;;;;;;;;;5067248;28;20624;-68
2021/11/03 08:27:34;;;;;;;50.65;25.77;;;;;;;;;;5083935;28;20361;-68
2021/11/03 08:30:00;;;;;;;55.30;28.23;;;;;;;;;;5065906;28;20104;-68
2021/11/03 08:32:28;;;;;;;76.80;27.67;;;;;;;;;;5080298;28;20113;-69
2021/11/03 08:34:55;;;;;;;64.15;27.98;;;;;;;;;;5082443;28;20105;-68
2021/11/03 08:37:23;;;;;;;48.00;26.42;;;;;;;;;;5074721;28;20049;-69
2021/11/03 08:39:51;;;;;;;61.13;25.95;;;;;;;;;;5108405;28;20068;-68
2021/11/03 08:42:18;;;;;;;67.60;25.92;;;;;;;;;;5095518;28;20060;-69
2021/11/03 08:44:44;;;;;;;62.05;27.33;;;;;;;;;;5100339;28;20076;-68
2021/11/03 08:47:11;;;;;;;53.22;27.17;;;;;;;;;;5095235;28;20040;-68
2021/11/03 08:49:38;;;;;;;105.40;30.00;;;;;;;;;;5111068;28;20054;-68
2021/11/03 08:52:05;;;;;;;64.57;28.73;;;;;;;;;;5112489;28;20495;-68
2021/11/03 08:54:32;;;;;;;71.00;28.33;;;;;;;;;;5092975;28;20061;-68
2021/11/03 08:56:58;;;;;;;61.63;28.00;;;;;;;;;;5112292;28;20035;-68
2021/11/03 08:59:24;;;;;;;61.17;28.48;;;;;;;;;;5095174;28;20411;-68
2021/11/03 09:01:51;;;;;;;72.15;28.65;;;;;;;;;;5118726;28;20095;-68
2021/11/03 09:04:17;;;;;;;60.80;29.90;;;;;;;;;;5087651;28;20550;-68
2021/11/03 09:06:43;;;;;;;65.70;29.00;;;;;;;;;;5102665;28;20778;-68
2021/11/03 09:09:09;;;;;;;61.35;26.30;;;;;;;;;;5114441;28;20071;-68
2021/11/03 09:11:35;;;;;;;205.88;30.77;;;;;;;;;;5094644;28;20065;-68
2021/11/03 09:14:01;;;;;;;133.75;32.30;;;;;;;;;;5117055;28;20048;-68
2021/11/03 09:16:28;;;;;;;111.38;32.65;;;;;;;;;;5096396;28;20036;-68
2021/11/03 09:18:54;;;;;;;199.75;37.28;;;;;;;;;;5093358;28;20048;-68
2021/11/03 09:21:22;;;;;;;180.73;33.42;;;;;;;;;;5113308;28;20046;-68
2021/11/03 09:23:48;;;;;;;141.75;33.10;;;;;;;;;;5104671;28;20043;-68
2021/11/03 09:26:15;;;;;;;99.05;33.67;;;;;;;;;;5119492;28;20047;-68
2021/11/03 09:28:41;;;;;;;159.43;36.03;;;;;;;;;;5115684;28;20111;-68
2021/11/03 09:31:08;;;;;;;80.05;31.10;;;;;;;;;;5112754;28;20040;-68
2021/11/03 09:33:36;;;;;;;92.07;29.23;;;;;;;;;;5115647;28;20040;-68
2021/11/03 09:36:03;;;;;;;130.02;31.45;;;;;;;;;;5108844;28;20391;-67
2021/11/03 09:38:31;;;;;;;114.97;31.77;;;;;;;;;;5112470;28;20048;-68
2021/11/03 09:40:59;;;;;;;114.68;27.95;;;;;;;;;;5117976;28;20131;-68
2021/11/03 09:43:26;;;;;;;75.93;28.25;;;;;;;;;;5117186;28;20036;-68
2021/11/03 09:45:52;;;;;;;70.57;28.10;;;;;;;;;;5111356;28;20078;-67
2021/11/03 09:48:24;;;;;;;65.30;27.27;;;;;;;;;;5116473;28;20028;-67
2021/11/03 09:50:52;;;;;;;72.32;28.60;;;;;;;;;;5113740;28;20051;-68
2021/11/03 09:53:24;;;;;;;56.40;27.20;;;;;;;;;;5120266;28;20063;-68
2021/11/03 09:55:50;;;;;;;50.10;26.60;;;;;;;;;;5096338;28;20052;-68
2021/11/03 09:58:18;;;;;;;41.20;24.70;;;;;;;;;;5120508;28;20035;-68
2021/11/03 10:01:03;;;;;;;39.83;23.55;;;;;;;;;;5097832;28;20079;-68
2021/11/03 10:03:35;;;;;;;45.17;24.90;;;;;;;;;;5093865;28;20040;-68
2021/11/03 10:06:01;;;;;;;47.50;25.38;;;;;;;;;;5111083;28;20056;-68
2021/11/03 10:08:29;;;;;;;47.60;27.30;;;;;;;;;;5119810;28;20495;-68
2021/11/03 10:11:03;;;;;;;43.42;24.50;;;;;;;;;;5097855;28;20047;-68
2021/11/03 10:13:37;;;;;;;40.33;24.85;;;;;;;;;;5118773;28;20043;-68
2021/11/03 10:16:15;;;;;;;39.08;23.98;;;;;;;;;;5118786;28;20075;-68
2021/11/03 10:18:57;;;;;;;40.50;24.15;;;;;;;;;;5119317;28;20411;-68
2021/11/03 10:21:25;;;;;;;42.20;24.38;;;;;;;;;;5111742;28;20054;-68
2021/11/03 10:23:51;;;;;;;43.28;25.05;;;;;;;;;;5096931;28;20492;-68
2021/11/03 10:26:17;;;;;;;44.15;25.65;;;;;;;;;;5096703;28;20051;-68
2021/11/03 10:28:45;;;;;;;41.55;24.70;;;;;;;;;;5118757;28;20184;-68
2021/11/03 10:31:29;;;;;;;45.30;26.20;;;;;;;;;;5115054;28;20039;-68
2021/11/03 10:34:00;;;;;;;39.35;24.88;;;;;;;;;;5098315;28;20146;-68
2021/11/03 10:36:36;;;;;;;44.47;26.23;;;;;;;;;;5110882;28;20044;-68
2021/11/03 10:39:07;;;;;;;44.60;26.23;;;;;;;;;;5099957;28;20055;-68
2021/11/03 10:41:35;;;;;;;48.30;27.55;;;;;;;;;;5112549;28;20036;-68
2021/11/03 10:44:08;;;;;;;42.35;26.75;;;;;;;;;;5092936;28;20070;-69
2021/11/03 10:46:47;;;;;;;41.58;26.38;;;;;;;;;;5109777;28;20040;-69
2021/11/03 10:49:19;;;;;;;49.13;23.90;;;;;;;;;;5097262;28;20047;-69
2021/11/03 10:51:46;;;;;;;47.13;24.45;;;;;;;;;;5096258;28;20052;-69
2021/11/03 10:54:21;;;;;;;36.23;23.13;;;;;;;;;;5117126;28;20407;-69
2021/11/03 10:56:51;;;;;;;35.30;22.85;;;;;;;;;;5108431;28;20059;-68
2021/11/03 10:59:17;;;;;;;34.38;24.17;;;;;;;;;;5097969;28;20056;-69
2021/11/03 11:01:46;;;;;;;35.08;24.15;;;;;;;;;;5114204;28;20380;-69
2021/11/03 11:04:21;;;;;;;34.00;23.02;;;;;;;;;;5114623;28;20051;-69
2021/11/03 11:06:51;;;;;;;34.22;22.13;;;;;;;;;;5115954;28;20092;-69
2021/11/03 11:09:31;;;;;;;31.95;21.83;;;;;;;;;;5114334;28;20039;-69
2021/11/03 11:12:00;;;;;;;28.77;20.80;;;;;;;;;;5118365;28;20043;-69
2021/11/03 11:14:29;;;;;;;29.95;21.15;;;;;;;;;;5113647;28;20036;-69
2021/11/03 11:17:03;;;;;;;31.35;21.10;;;;;;;;;;5116777;28;20069;-69
2021/11/03 11:19:35;;;;;;;25.77;19.25;;;;;;;;;;5120771;28;20079;-68
2021/11/03 11:22:13;;;;;;;28.88;20.40;;;;;;;;;;5115078;28;20059;-69
2021/11/03 11:24:45;;;;;;;30.08;19.23;;;;;;;;;;5107090;28;20043;-69
2021/11/03 11:27:18;;;;;;;31.00;20.30;;;;;;;;;;5120321;28;20049;-69
2021/11/03 11:30:02;;;;;;;32.28;21.05;;;;;;;;;;5114918;28;20059;-70
2021/11/03 11:32:40;;;;;;;30.52;21.77;;;;;;;;;;5112186;28;20039;-70
2021/11/03 11:35:15;;;;;;;33.15;21.80;;;;;;;;;;5105879;28;20052;-69
2021/11/03 11:38:00;;;;;;;33.75;22.77;;;;;;;;;;5093707;28;20048;-69
2021/11/03 11:40:45;;;;;;;29.08;21.67;;;;;;;;;;5101765;28;20048;-69
2021/11/03 11:43:33;;;;;;;25.77;18.77;;;;;;;;;;5111996;28;20292;-69
2021/11/03 11:46:11;;;;;;;26.38;19.85;;;;;;;;;;5105856;28;20093;-69
2021/11/03 11:48:40;;;;;;;27.60;19.73;;;;;;;;;;5114765;28;20066;-69
2021/11/03 11:51:09;;;;;;;27.33;20.38;;;;;;;;;;5122623;28;20108;-69
2021/11/03 11:53:41;;;;;;;30.63;21.40;;;;;;;;;;5115083;28;20039;-69
2021/11/03 11:56:07;;;;;;;28.25;20.73;;;;;;;;;;5102302;28;20055;-69
2021/11/03 11:58:34;;;;;;;31.27;23.08;;;;;;;;;;5110201;28;20043;-69
2021/11/03 12:01:12;;;;;;;30.23;20.98;;;;;;;;;;5112667;28;20095;-69
2021/11/03 12:03:44;;;;;;;28.42;20.90;;;;;;;;;;5111599;28;20031;-68
2021/11/03 12:06:11;;;;;;;27.58;21.55;;;;;;;;;;5121928;28;20072;-69
2021/11/03 12:08:58;;;;;;;25.80;19.00;;;;;;;;;;5078866;28;20124;-69
2021/11/03 12:11:28;;;;;;;24.08;18.80;;;;;;;;;;5106214;28;20301;-68
2021/11/03 12:13:59;;;;;;;24.70;19.05;;;;;;;;;;5111375;28;20043;-69
2021/11/03 12:16:35;;;;;;;23.58;17.48;;;;;;;;;;5098906;28;20101;-69
2021/11/03 12:19:24;;;;;;;26.85;18.20;;;;;;;;;;5110549;28;20051;-69
2021/11/03 12:21:50;;;;;;;;;;;;;;;;;;5116898;28;20044;-68
2021/11/03 12:24:27;;;;;;;25.33;18.38;;;;;;;;;;5123746;28;20511;-69
2021/11/03 12:27:13;;;;;;;22.15;17.15;;;;;;;;;;5114826;28;20047;-68
2021/11/03 12:29:41;;;;;;;22.02;16.67;;;;;;;;;;5104178;28;20451;-69
2021/11/03 12:32:23;;;;;;;19.92;16.27;;;;;;;;;;5112788;28;20040;-69
2021/11/03 12:34:49;;;;;;;20.55;16.27;;;;;;;;;;5112415;28;20043;-69
2021/11/03 12:37:15;;;;;;;29.67;18.73;;;;;;;;;;5107977;28;20044;-69
2021/11/03 12:39:41;;;;;;;23.25;17.52;;;;;;;;;;5088620;28;20116;-69
2021/11/03 12:42:12;;;;;;;21.48;16.70;;;;;;;;;;5093592;28;20041;-69
2021/11/03 12:44:43;;;;;;;22.50;17.35;;;;;;;;;;5089866;28;20151;-69
2021/11/03 12:47:19;;;;;;;28.52;17.92;;;;;;;;;;5093762;28;20044;-69
2021/11/03 12:49:58;;;;;;;22.13;16.10;;;;;;;;;;5093729;28;20047;-69
2021/11/03 12:52:26;;;;;;;21.92;16.38;;;;;;;;;;5096402;28;20090;-70
2021/11/03 12:54:53;;;;;;;25.23;19.00;;;;;;;;;;5096184;28;20048;-70
2021/11/03 12:57:21;;;;;;;22.80;18.17;;;;;;;;;;5093387;28;20073;-69
2021/11/03 12:59:59;;;;;;;24.15;17.45;;;;;;;;;;5098377;28;20043;-69
2021/11/03 13:02:30;;;;;;;22.67;17.77;;;;;;;;;;5094387;28;20574;-69
2021/11/03 13:05:14;;;;;;;24.52;19.17;;;;;;;;;;5094655;28;20075;-70
2021/11/03 13:07:41;;;;;;;26.73;18.52;;;;;;;;;;5077533;28;20522;-69
2021/11/03 13:10:19;;;;;;;29.60;19.00;;;;;;;;;;5094745;28;20066;-69
2021/11/03 13:12:51;;;;;;;25.42;18.35;;;;;;;;;;5094838;28;20055;-70
2021/11/03 13:15:19;;;;;;;24.60;17.88;;;;;;;;;;5096324;28;20132;-70
2021/11/03 13:17:48;;;;;;;24.92;17.55;;;;;;;;;;5089502;28;20067;-69
2021/11/03 13:20:29;;;;;;;24.75;17.75;;;;;;;;;;5090782;28;20056;-69
2021/11/03 13:22:56;;;;;;;22.48;17.77;;;;;;;;;;5092492;28;20072;-70
2021/11/03 13:25:25;;;;;;;28.05;18.60;;;;;;;;;;5094106;28;20484;-69
2021/11/03 13:27:52;;;;;;;22.63;17.45;;;;;;;;;;5076949;28;20075;-69
2021/11/03 13:30:27;;;;;;;25.38;17.75;;;;;;;;;;5100484;28;20495;-69
2021/11/03 13:32:55;;;;;;;23.35;17.45;;;;;;;;;;5098895;28;20039;-69
2021/11/03 13:35:23;;;;;;;20.95;16.17;;;;;;;;;;5092747;28;20052;-69
2021/11/03 13:37:49;;;;;;;;;;;;;;;;;;5097505;28;20040;-70
2021/11/03 13:40:15;;;;;;;22.70;17.55;;;;;;;;;;5105788;28;19942;-69
2021/11/03 13:42:56;;;;;;;22.85;17.27;;;;;;;;;;5120056;28;20065;-69
2021/11/03 13:45:26;;;;;;;25.08;18.30;;;;;;;;;;5110293;28;20107;-70
2021/11/03 13:47:58;;;;;;;27.30;19.92;;;;;;;;;;5120017;28;20043;-67
2021/11/03 13:50:45;;;;;;;26.08;19.58;;;;;;;;;;5094702;28;20056;-68
2021/11/03 13:53:11;;;;;;;26.83;20.40;;;;;;;;;;5081101;28;20694;-68
2021/11/03 13:55:50;;;;;;;26.92;20.15;;;;;;;;;;5103134;28;20055;-71
2021/11/03 13:58:35;;;;;;;24.92;17.48;;;;;;;;;;5094832;28;20060;-70
2021/11/03 14:01:12;;;;;;;25.80;16.58;;;;;;;;;;5097942;28;20050;-67
2021/11/03 14:03:57;;;;;;;25.00;17.15;;;;;;;;;;5096059;28;20059;-68
2021/11/03 14:06:29;;;;;;;21.80;16.63;;;;;;;;;;5119462;28;20040;-68
2021/11/03 14:08:57;;;;;;;21.92;15.98;;;;;;;;;;5118236;28;20039;-68
2021/11/03 14:11:24;;;;;;;27.15;18.58;;;;;;;;;;5110539;28;20471;-66
2021/11/03 14:13:51;;;;;;;28.70;18.13;;;;;;;;;;5098935;28;20095;-67
2021/11/03 14:16:23;;;;;;;24.53;18.80;;;;;;;;;;5093450;28;20310;-67
2021/11/03 14:18:50;;;;;;;26.65;19.13;;;;;;;;;;5095226;28;20092;-71
2021/11/03 14:21:16;;;;;;;28.08;20.20;;;;;;;;;;5117361;28;20051;-73
2021/11/03 14:23:43;;;;;;;25.65;19.10;;;;;;;;;;5115350;28;20108;-76
2021/11/03 14:26:13;;;;;;;25.20;19.27;;;;;;;;;;5116803;28;20035;-73
2021/11/03 14:28:40;;;;;;;27.23;19.75;;;;;;;;;;5113726;28;20206;-72